sensor_id;sensor_type;location;lat;lon;timestamp;temperature;humidity
18884;DHT22;9574;47.282;9.640;2023-04-01T00:01:15;8.60;99.90
18884;DHT22;9574;47.282;9.640;2023-04-01T00:03:46;8.70;99.90
18884;DHT22;9574;47.282;9.640;2023-04-01T00:06:17;8.80;99.90
18884;DHT22;9574;47.282;9.640;2023-04-01T00:08:44;8.80;99.90
18884;DHT22;9574;47.282;9.640;2023-04-01T00:11:14;8.70;99.90
18884;DHT22;9574;47.282;9.640;2023-04-01T00:13:43;8.60;99.90
18884;DHT22;9574;47.282;9.640;2023-04-01T00:16:13;8.60;99.90
18884;DHT22;9574;47.282;9.640;2023-04-01T00:18:40;9.00;99.90
18884;DHT22;9574;47.282;9.640;2023-04-01T00:21:14;9.20;99.90
18884;DHT22;9574;47.282;9.640;2023-04-01T00:23:42;9.30;99.90
18884;DHT22;9574;47.282;9.640;2023-04-01T00:26:10;9.40;99.90
18884;DHT22;9574;47.282;9.640;2023-04-01T00:28:40;9.30;99.90
18884;DHT22;9574;47.282;9.640;2023-04-01T00:31:08;9.10;99.90
18884;DHT22;9574;47.282;9.640;2023-04-01T00:33:39;9.20;99.90
18884;DHT22;9574;47.282;9.640;2023-04-01T00:36:09;9.30;99.90
18884;DHT22;9574;47.282;9.640;2023-04-01T00:38:39;9.40;99.90
18884;DHT22;9574;47.282;9.640;2023-04-01T00:41:08;9.20;99.90
18884;DHT22;9574;47.282;9.640;2023-04-01T00:43:36;8.80;99.90
18884;DHT22;9574;47.282;9.640;2023-04-01T00:46:03;8.50;99.90
18884;DHT22;9574;47.282;9.640;2023-04-01T00:48:35;8.30;99.90
18884;DHT22;9574;47.282;9.640;2023-04-01T00:51:10;8.20;99.90
18884;DHT22;9574;47.282;9.640;2023-04-01T00:53:41;8.30;99.90
18884;DHT22;9574;47.282;9.640;2023-04-01T00:56:12;8.60;99.90
18884;DHT22;9574;47.282;9.640;2023-04-01T00:58:43;8.70;99.90
18884;DHT22;9574;47.282;9.640;2023-04-01T01:01:15;8.80;99.90
18884;DHT22;9574;47.282;9.640;2023-04-01T01:03:42;8.70;99.90
18884;DHT22;9574;47.282;9.640;2023-04-01T01:06:20;8.90;99.90
18884;DHT22;9574;47.282;9.640;2023-04-01T01:09:00;9.20;99.90
18884;DHT22;9574;47.282;9.640;2023-04-01T01:11:36;9.40;99.90
18884;DHT22;9574;47.282;9.640;2023-04-01T01:14:10;9.30;99.90
18884;DHT22;9574;47.282;9.640;2023-04-01T01:16:44;9.20;99.90
18884;DHT22;9574;47.282;9.640;2023-04-01T01:22:39;9.20;99.90
18884;DHT22;9574;47.282;9.640;2023-04-01T01:25:29;9.30;99.90
18884;DHT22;9574;47.282;9.640;2023-04-01T01:28:08;9.50;99.90
18884;DHT22;9574;47.282;9.640;2023-04-01T01:30:49;9.40;99.90
18884;DHT22;9574;47.282;9.640;2023-04-01T01:33:32;9.00;99.90
18884;DHT22;9574;47.282;9.640;2023-04-01T01:36:04;9.10;99.90
18884;DHT22;9574;47.282;9.640;2023-04-01T01:38:35;8.90;99.90
18884;DHT22;9574;47.282;9.640;2023-04-01T01:41:05;8.90;99.90
18884;DHT22;9574;47.282;9.640;2023-04-01T01:43:38;9.20;99.90
18884;DHT22;9574;47.282;9.640;2023-04-01T01:46:09;9.30;99.90
18884;DHT22;9574;47.282;9.640;2023-04-01T01:48:42;9.20;99.90
18884;DHT22;9574;47.282;9.640;2023-04-01T01:51:20;9.00;99.90
18884;DHT22;9574;47.282;9.640;2023-04-01T01:53:49;8.90;99.90
18884;DHT22;9574;47.282;9.640;2023-04-01T01:56:18;9.10;99.90
18884;DHT22;9574;47.282;9.640;2023-04-01T01:58:50;9.20;99.90
18884;DHT22;9574;47.282;9.640;2023-04-01T02:01:21;9.10;99.90
18884;DHT22;9574;47.282;9.640;2023-04-01T02:03:50;9.10;99.90
18884;DHT22;9574;47.282;9.640;2023-04-01T02:06:25;9.20;99.90
18884;DHT22;9574;47.282;9.640;2023-04-01T02:08:57;9.10;99.90
18884;DHT22;9574;47.282;9.640;2023-04-01T02:11:30;8.90;99.90
18884;DHT22;9574;47.282;9.640;2023-04-01T02:14:04;8.70;99.90
18884;DHT22;9574;47.282;9.640;2023-04-01T02:16:36;8.90;99.90
18884;DHT22;9574;47.282;9.640;2023-04-01T02:19:07;8.70;99.90
18884;DHT22;9574;47.282;9.640;2023-04-01T02:21:39;8.20;99.90
18884;DHT22;9574;47.282;9.640;2023-04-01T02:24:12;8.10;99.90
18884;DHT22;9574;47.282;9.640;2023-04-01T02:26:40;8.00;99.90
18884;DHT22;9574;47.282;9.640;2023-04-01T02:29:11;8.20;99.90
18884;DHT22;9574;47.282;9.640;2023-04-01T02:31:41;8.20;99.90
18884;DHT22;9574;47.282;9.640;2023-04-01T02:34:08;8.10;99.90
18884;DHT22;9574;47.282;9.640;2023-04-01T02:36:38;7.90;99.90
18884;DHT22;9574;47.282;9.640;2023-04-01T02:39:08;7.80;99.90
18884;DHT22;9574;47.282;9.640;2023-04-01T02:41:38;7.80;99.90
18884;DHT22;9574;47.282;9.640;2023-04-01T02:44:08;7.80;99.90
18884;DHT22;9574;47.282;9.640;2023-04-01T02:46:37;7.80;99.90
18884;DHT22;9574;47.282;9.640;2023-04-01T02:49:06;7.80;99.90
18884;DHT22;9574;47.282;9.640;2023-04-01T02:51:33;7.90;99.90
18884;DHT22;9574;47.282;9.640;2023-04-01T02:54:10;7.90;99.90
18884;DHT22;9574;47.282;9.640;2023-04-01T02:56:38;8.00;99.90
18884;DHT22;9574;47.282;9.640;2023-04-01T02:59:07;8.10;99.90
18884;DHT22;9574;47.282;9.640;2023-04-01T03:01:34;8.30;99.90
18884;DHT22;9574;47.282;9.640;2023-04-01T03:04:04;8.30;99.90
18884;DHT22;9574;47.282;9.640;2023-04-01T03:06:31;8.20;99.90
18884;DHT22;9574;47.282;9.640;2023-04-01T03:09:00;8.10;99.90
18884;DHT22;9574;47.282;9.640;2023-04-01T03:11:29;8.20;99.90
18884;DHT22;9574;47.282;9.640;2023-04-01T03:13:58;8.40;99.90
18884;DHT22;9574;47.282;9.640;2023-04-01T03:16:28;8.50;99.90
18884;DHT22;9574;47.282;9.640;2023-04-01T03:18:56;8.30;99.90
18884;DHT22;9574;47.282;9.640;2023-04-01T03:21:27;8.00;99.90
18884;DHT22;9574;47.282;9.640;2023-04-01T03:23:55;8.10;99.90
18884;DHT22;9574;47.282;9.640;2023-04-01T03:26:29;8.00;99.90
18884;DHT22;9574;47.282;9.640;2023-04-01T03:28:56;7.90;99.90
18884;DHT22;9574;47.282;9.640;2023-04-01T03:31:23;7.80;99.90
18884;DHT22;9574;47.282;9.640;2023-04-01T03:33:51;7.90;99.90
18884;DHT22;9574;47.282;9.640;2023-04-01T03:36:18;7.80;99.90
18884;DHT22;9574;47.282;9.640;2023-04-01T03:38:46;7.70;99.90
18884;DHT22;9574;47.282;9.640;2023-04-01T03:41:17;7.70;99.90
18884;DHT22;9574;47.282;9.640;2023-04-01T03:43:47;7.80;99.90
18884;DHT22;9574;47.282;9.640;2023-04-01T03:46:17;8.10;99.90
18884;DHT22;9574;47.282;9.640;2023-04-01T03:48:46;8.30;99.90
18884;DHT22;9574;47.282;9.640;2023-04-01T03:51:15;8.30;99.90
18884;DHT22;9574;47.282;9.640;2023-04-01T03:53:42;8.30;99.90
18884;DHT22;9574;47.282;9.640;2023-04-01T03:56:09;8.20;99.90
18884;DHT22;9574;47.282;9.640;2023-04-01T04:01:27;8.00;99.90
18884;DHT22;9574;47.282;9.640;2023-04-01T04:03:55;7.80;99.90
18884;DHT22;9574;47.282;9.640;2023-04-01T04:06:25;7.70;99.90
18884;DHT22;9574;47.282;9.640;2023-04-01T04:08:53;7.70;99.90
18884;DHT22;9574;47.282;9.640;2023-04-01T04:11:21;7.80;99.90
18884;DHT22;9574;47.282;9.640;2023-04-01T04:13:50;7.90;99.90
18884;DHT22;9574;47.282;9.640;2023-04-01T04:16:20;8.20;99.90
18884;DHT22;9574;47.282;9.640;2023-04-01T04:18:50;8.10;99.90
18884;DHT22;9574;47.282;9.640;2023-04-01T04:21:19;8.30;99.90
18884;DHT22;9574;47.282;9.640;2023-04-01T04:23:46;8.50;99.90
18884;DHT22;9574;47.282;9.640;2023-04-01T04:26:14;8.20;99.90
18884;DHT22;9574;47.282;9.640;2023-04-01T04:28:41;7.90;99.90
18884;DHT22;9574;47.282;9.640;2023-04-01T04:31:12;7.90;99.90
18884;DHT22;9574;47.282;9.640;2023-04-01T04:33:47;7.90;99.90
18884;DHT22;9574;47.282;9.640;2023-04-01T04:36:14;7.80;99.90
18884;DHT22;9574;47.282;9.640;2023-04-01T04:38:43;7.70;99.90
18884;DHT22;9574;47.282;9.640;2023-04-01T04:41:11;7.60;99.90
18884;DHT22;9574;47.282;9.640;2023-04-01T04:43:39;7.80;99.90
18884;DHT22;9574;47.282;9.640;2023-04-01T04:46:08;8.10;99.90
18884;DHT22;9574;47.282;9.640;2023-04-01T04:48:37;8.30;99.90
18884;DHT22;9574;47.282;9.640;2023-04-01T04:51:16;8.40;99.90
18884;DHT22;9574;47.282;9.640;2023-04-01T04:53:45;8.50;99.90
18884;DHT22;9574;47.282;9.640;2023-04-01T04:56:19;8.40;99.90
18884;DHT22;9574;47.282;9.640;2023-04-01T04:58:51;8.30;99.90
18884;DHT22;9574;47.282;9.640;2023-04-01T05:01:18;8.30;99.90
18884;DHT22;9574;47.282;9.640;2023-04-01T05:03:46;8.00;99.90
18884;DHT22;9574;47.282;9.640;2023-04-01T05:06:16;7.80;99.90
18884;DHT22;9574;47.282;9.640;2023-04-01T05:08:45;7.80;99.90
18884;DHT22;9574;47.282;9.640;2023-04-01T05:11:16;7.50;99.90
18884;DHT22;9574;47.282;9.640;2023-04-01T05:13:45;7.30;99.90
18884;DHT22;9574;47.282;9.640;2023-04-01T05:16:16;7.50;99.90
18884;DHT22;9574;47.282;9.640;2023-04-01T05:18:48;7.60;99.90
18884;DHT22;9574;47.282;9.640;2023-04-01T05:21:18;7.80;99.90
18884;DHT22;9574;47.282;9.640;2023-04-01T05:23:46;7.60;99.90
18884;DHT22;9574;47.282;9.640;2023-04-01T05:26:14;7.80;99.90
18884;DHT22;9574;47.282;9.640;2023-04-01T05:28:42;7.90;99.90
18884;DHT22;9574;47.282;9.640;2023-04-01T05:31:09;7.90;99.90
18884;DHT22;9574;47.282;9.640;2023-04-01T05:33:42;8.00;99.90
18884;DHT22;9574;47.282;9.640;2023-04-01T05:36:12;8.00;99.90
18884;DHT22;9574;47.282;9.640;2023-04-01T05:38:41;7.80;99.90
18884;DHT22;9574;47.282;9.640;2023-04-01T05:41:11;7.60;99.90
18884;DHT22;9574;47.282;9.640;2023-04-01T05:43:41;7.80;99.90
18884;DHT22;9574;47.282;9.640;2023-04-01T05:46:12;8.10;99.90
18884;DHT22;9574;47.282;9.640;2023-04-01T05:48:40;8.10;99.90
18884;DHT22;9574;47.282;9.640;2023-04-01T05:51:12;8.30;99.90
18884;DHT22;9574;47.282;9.640;2023-04-01T05:53:43;8.50;99.90
18884;DHT22;9574;47.282;9.640;2023-04-01T05:56:11;8.60;99.90
18884;DHT22;9574;47.282;9.640;2023-04-01T05:58:40;8.60;99.90
18884;DHT22;9574;47.282;9.640;2023-04-01T06:01:10;8.40;99.90
18884;DHT22;9574;47.282;9.640;2023-04-01T06:03:37;8.20;99.90
18884;DHT22;9574;47.282;9.640;2023-04-01T06:06:08;8.10;99.90
18884;DHT22;9574;47.282;9.640;2023-04-01T06:08:39;8.00;99.90
18884;DHT22;9574;47.282;9.640;2023-04-01T06:11:19;7.90;99.90
18884;DHT22;9574;47.282;9.640;2023-04-01T06:14:06;7.90;99.90
18884;DHT22;9574;47.282;9.640;2023-04-01T06:16:41;8.10;99.90
18884;DHT22;9574;47.282;9.640;2023-04-01T06:19:20;8.20;99.90
18884;DHT22;9574;47.282;9.640;2023-04-01T06:22:17;8.10;99.90
18884;DHT22;9574;47.282;9.640;2023-04-01T06:25:09;8.00;99.90
18884;DHT22;9574;47.282;9.640;2023-04-01T06:30:53;7.90;99.90
18884;DHT22;9574;47.282;9.640;2023-04-01T06:33:35;7.90;99.90
18884;DHT22;9574;47.282;9.640;2023-04-01T06:36:43;7.90;99.90
18884;DHT22;9574;47.282;9.640;2023-04-01T06:39:36;7.90;99.90
18884;DHT22;9574;47.282;9.640;2023-04-01T06:42:29;7.80;99.90
18884;DHT22;9574;47.282;9.640;2023-04-01T06:45:08;7.80;99.90
18884;DHT22;9574;47.282;9.640;2023-04-01T06:47:51;7.80;99.90
18884;DHT22;9574;47.282;9.640;2023-04-01T06:50:26;7.80;99.90
18884;DHT22;9574;47.282;9.640;2023-04-01T06:53:10;8.20;99.90
18884;DHT22;9574;47.282;9.640;2023-04-01T06:55:42;8.30;99.90
18884;DHT22;9574;47.282;9.640;2023-04-01T06:58:16;8.20;99.90
18884;DHT22;9574;47.282;9.640;2023-04-01T07:00:50;8.10;99.90
18884;DHT22;9574;47.282;9.640;2023-04-01T07:03:29;8.10;99.90
18884;DHT22;9574;47.282;9.640;2023-04-01T07:06:02;8.20;99.90
18884;DHT22;9574;47.282;9.640;2023-04-01T07:08:42;8.10;99.90
18884;DHT22;9574;47.282;9.640;2023-04-01T07:11:22;8.30;99.90
18884;DHT22;9574;47.282;9.640;2023-04-01T07:13:54;8.60;99.90
18884;DHT22;9574;47.282;9.640;2023-04-01T07:16:29;8.50;99.90
18884;DHT22;9574;47.282;9.640;2023-04-01T07:19:02;8.50;99.90
18884;DHT22;9574;47.282;9.640;2023-04-01T07:21:36;8.60;99.90
18884;DHT22;9574;47.282;9.640;2023-04-01T07:24:11;8.70;99.90
18884;DHT22;9574;47.282;9.640;2023-04-01T07:26:43;8.70;99.90
18884;DHT22;9574;47.282;9.640;2023-04-01T07:29:12;8.90;99.90
18884;DHT22;9574;47.282;9.640;2023-04-01T07:34:54;9.00;99.90
18884;DHT22;9574;47.282;9.640;2023-04-01T07:37:28;9.30;99.90
18884;DHT22;9574;47.282;9.640;2023-04-01T07:40:05;9.50;99.90
18884;DHT22;9574;47.282;9.640;2023-04-01T07:42:46;9.50;99.90
18884;DHT22;9574;47.282;9.640;2023-04-01T07:45:23;9.70;99.90
18884;DHT22;9574;47.282;9.640;2023-04-01T07:48:06;9.70;99.90
18884;DHT22;9574;47.282;9.640;2023-04-01T07:50:43;9.70;99.90
18884;DHT22;9574;47.282;9.640;2023-04-01T07:53:22;9.80;99.90
18884;DHT22;9574;47.282;9.640;2023-04-01T07:56:00;9.80;99.90
18884;DHT22;9574;47.282;9.640;2023-04-01T07:58:35;9.80;99.90
18884;DHT22;9574;47.282;9.640;2023-04-01T08:01:13;9.90;99.90
18884;DHT22;9574;47.282;9.640;2023-04-01T08:03:56;10.00;99.90
18884;DHT22;9574;47.282;9.640;2023-04-01T08:06:39;10.00;99.90
18884;DHT22;9574;47.282;9.640;2023-04-01T08:09:15;9.80;99.90
18884;DHT22;9574;47.282;9.640;2023-04-01T08:11:55;9.80;99.90
18884;DHT22;9574;47.282;9.640;2023-04-01T08:14:38;9.70;99.90
18884;DHT22;9574;47.282;9.640;2023-04-01T08:17:18;9.80;99.90
18884;DHT22;9574;47.282;9.640;2023-04-01T08:19:56;9.70;99.90
18884;DHT22;9574;47.282;9.640;2023-04-01T08:22:34;9.90;99.90
18884;DHT22;9574;47.282;9.640;2023-04-01T08:25:16;9.80;99.90
18884;DHT22;9574;47.282;9.640;2023-04-01T08:27:46;9.60;99.90
18884;DHT22;9574;47.282;9.640;2023-04-01T08:30:18;9.60;99.90
18884;DHT22;9574;47.282;9.640;2023-04-01T08:32:50;9.90;99.90
18884;DHT22;9574;47.282;9.640;2023-04-01T08:35:28;10.00;99.90
18884;DHT22;9574;47.282;9.640;2023-04-01T08:38:11;10.10;99.90
18884;DHT22;9574;47.282;9.640;2023-04-01T08:40:58;10.00;99.90
18884;DHT22;9574;47.282;9.640;2023-04-01T08:47:10;9.80;99.90
18884;DHT22;9574;47.282;9.640;2023-04-01T08:52:35;9.80;99.90
18884;DHT22;9574;47.282;9.640;2023-04-01T09:02:10;9.40;99.90
18884;DHT22;9574;47.282;9.640;2023-04-01T09:05:05;9.20;99.90
18884;DHT22;9574;47.282;9.640;2023-04-01T09:07:45;9.20;99.90
18884;DHT22;9574;47.282;9.640;2023-04-01T09:10:46;9.30;99.90
18884;DHT22;9574;47.282;9.640;2023-04-01T09:13:42;9.50;99.90
18884;DHT22;9574;47.282;9.640;2023-04-01T09:16:21;9.80;99.90
18884;DHT22;9574;47.282;9.640;2023-04-01T09:19:17;10.00;99.90
18884;DHT22;9574;47.282;9.640;2023-04-01T09:21:58;10.20;99.90
18884;DHT22;9574;47.282;9.640;2023-04-01T09:25:02;10.40;99.90
18884;DHT22;9574;47.282;9.640;2023-04-01T09:27:37;10.60;99.90
18884;DHT22;9574;47.282;9.640;2023-04-01T09:33:23;10.80;99.90
18884;DHT22;9574;47.282;9.640;2023-04-01T09:36:11;10.80;99.90
18884;DHT22;9574;47.282;9.640;2023-04-01T09:38:52;10.70;99.90
18884;DHT22;9574;47.282;9.640;2023-04-01T09:41:29;10.60;99.90
18884;DHT22;9574;47.282;9.640;2023-04-01T09:44:01;10.50;99.90
18884;DHT22;9574;47.282;9.640;2023-04-01T09:46:52;10.30;99.90
18884;DHT22;9574;47.282;9.640;2023-04-01T09:49:54;10.10;99.90
18884;DHT22;9574;47.282;9.640;2023-04-01T09:52:34;10.20;99.90
18884;DHT22;9574;47.282;9.640;2023-04-01T09:55:18;10.30;99.90
18884;DHT22;9574;47.282;9.640;2023-04-01T09:58:29;10.40;99.90
18884;DHT22;9574;47.282;9.640;2023-04-01T10:10:54;10.70;99.90
18884;DHT22;9574;47.282;9.640;2023-04-01T10:13:56;10.60;99.90
18884;DHT22;9574;47.282;9.640;2023-04-01T10:20:12;10.70;99.90
18884;DHT22;9574;47.282;9.640;2023-04-01T10:22:58;10.70;99.90
18884;DHT22;9574;47.282;9.640;2023-04-01T10:25:58;10.70;99.90
18884;DHT22;9574;47.282;9.640;2023-04-01T10:28:49;10.60;99.90
18884;DHT22;9574;47.282;9.640;2023-04-01T10:31:42;10.50;99.90
18884;DHT22;9574;47.282;9.640;2023-04-01T10:37:42;10.40;99.90
18884;DHT22;9574;47.282;9.640;2023-04-01T10:40:42;10.30;99.90
18884;DHT22;9574;47.282;9.640;2023-04-01T10:53:23;10.70;99.90
18884;DHT22;9574;47.282;9.640;2023-04-01T11:06:08;10.90;99.90
18884;DHT22;9574;47.282;9.640;2023-04-01T11:18:17;10.90;99.90
18884;DHT22;9574;47.282;9.640;2023-04-01T11:24:15;10.90;99.90
18884;DHT22;9574;47.282;9.640;2023-04-01T11:27:10;11.00;99.90
18884;DHT22;9574;47.282;9.640;2023-04-01T11:29:57;11.30;99.90
18884;DHT22;9574;47.282;9.640;2023-04-01T11:32:38;11.30;99.90
18884;DHT22;9574;47.282;9.640;2023-04-01T11:35:26;11.10;99.90
18884;DHT22;9574;47.282;9.640;2023-04-01T11:38:15;11.30;99.90
18884;DHT22;9574;47.282;9.640;2023-04-01T11:40:53;11.40;99.90
18884;DHT22;9574;47.282;9.640;2023-04-01T11:43:29;11.30;99.90
18884;DHT22;9574;47.282;9.640;2023-04-01T11:46:02;11.30;99.90
18884;DHT22;9574;47.282;9.640;2023-04-01T11:48:40;11.30;99.90
18884;DHT22;9574;47.282;9.640;2023-04-01T11:54:24;11.30;99.90
18884;DHT22;9574;47.282;9.640;2023-04-01T11:57:11;11.20;99.90
18884;DHT22;9574;47.282;9.640;2023-04-01T12:03:10;10.90;99.90
18884;DHT22;9574;47.282;9.640;2023-04-01T12:05:46;10.90;99.90
18884;DHT22;9574;47.282;9.640;2023-04-01T12:08:33;10.90;99.90
18884;DHT22;9574;47.282;9.640;2023-04-01T12:11:13;11.10;99.90
18884;DHT22;9574;47.282;9.640;2023-04-01T12:13:52;11.30;99.90
18884;DHT22;9574;47.282;9.640;2023-04-01T12:16:51;11.30;99.90
18884;DHT22;9574;47.282;9.640;2023-04-01T12:19:26;11.30;99.90
18884;DHT22;9574;47.282;9.640;2023-04-01T12:22:13;11.30;99.90
18884;DHT22;9574;47.282;9.640;2023-04-01T12:24:49;11.30;99.90
18884;DHT22;9574;47.282;9.640;2023-04-01T12:33:46;11.30;99.90
18884;DHT22;9574;47.282;9.640;2023-04-01T12:36:24;11.30;99.90
18884;DHT22;9574;47.282;9.640;2023-04-01T12:39:17;11.40;99.90
18884;DHT22;9574;47.282;9.640;2023-04-01T12:41:52;11.60;99.90
18884;DHT22;9574;47.282;9.640;2023-04-01T12:44:37;11.60;99.90
18884;DHT22;9574;47.282;9.640;2023-04-01T12:47:30;11.60;99.90
18884;DHT22;9574;47.282;9.640;2023-04-01T12:53:14;11.40;99.90
18884;DHT22;9574;47.282;9.640;2023-04-01T12:55:45;11.50;99.90
18884;DHT22;9574;47.282;9.640;2023-04-01T12:58:48;11.50;99.90
18884;DHT22;9574;47.282;9.640;2023-04-01T13:05:01;11.50;99.90
18884;DHT22;9574;47.282;9.640;2023-04-01T13:07:53;11.50;99.90
18884;DHT22;9574;47.282;9.640;2023-04-01T13:10:31;11.40;99.90
18884;DHT22;9574;47.282;9.640;2023-04-01T13:13:18;11.30;99.90
18884;DHT22;9574;47.282;9.640;2023-04-01T13:15:54;11.10;99.90
18884;DHT22;9574;47.282;9.640;2023-04-01T13:18:32;11.10;99.90
18884;DHT22;9574;47.282;9.640;2023-04-01T13:21:11;11.20;99.90
18884;DHT22;9574;47.282;9.640;2023-04-01T13:23:54;11.40;99.90
18884;DHT22;9574;47.282;9.640;2023-04-01T13:26:30;11.40;99.90
18884;DHT22;9574;47.282;9.640;2023-04-01T13:29:06;11.30;99.90
18884;DHT22;9574;47.282;9.640;2023-04-01T13:31:44;11.20;99.90
18884;DHT22;9574;47.282;9.640;2023-04-01T13:34:32;11.20;99.90
18884;DHT22;9574;47.282;9.640;2023-04-01T13:40:18;11.10;99.90
18884;DHT22;9574;47.282;9.640;2023-04-01T13:42:53;11.20;99.90
18884;DHT22;9574;47.282;9.640;2023-04-01T13:45:27;11.30;99.90
18884;DHT22;9574;47.282;9.640;2023-04-01T13:48:27;11.50;99.90
18884;DHT22;9574;47.282;9.640;2023-04-01T13:51:19;11.60;99.90
18884;DHT22;9574;47.282;9.640;2023-04-01T13:54:21;11.50;99.90
18884;DHT22;9574;47.282;9.640;2023-04-01T13:56:57;11.50;99.90
18884;DHT22;9574;47.282;9.640;2023-04-01T13:59:45;11.30;99.90
18884;DHT22;9574;47.282;9.640;2023-04-01T14:05:37;11.30;99.90
18884;DHT22;9574;47.282;9.640;2023-04-01T14:08:17;11.20;99.90
18884;DHT22;9574;47.282;9.640;2023-04-01T14:10:53;11.10;99.90
18884;DHT22;9574;47.282;9.640;2023-04-01T14:13:28;10.90;99.90
18884;DHT22;9574;47.282;9.640;2023-04-01T14:16:14;10.80;99.90
18884;DHT22;9574;47.282;9.640;2023-04-01T14:19:03;10.80;99.90
18884;DHT22;9574;47.282;9.640;2023-04-01T14:21:39;10.80;99.90
18884;DHT22;9574;47.282;9.640;2023-04-01T14:24:18;10.80;99.90
18884;DHT22;9574;47.282;9.640;2023-04-01T14:30:19;10.80;99.90
18884;DHT22;9574;47.282;9.640;2023-04-01T14:33:17;10.90;99.90
18884;DHT22;9574;47.282;9.640;2023-04-01T14:35:57;10.90;99.90
18884;DHT22;9574;47.282;9.640;2023-04-01T14:38:42;10.90;99.90
18884;DHT22;9574;47.282;9.640;2023-04-01T14:41:19;11.00;99.90
18884;DHT22;9574;47.282;9.640;2023-04-01T14:44:30;11.00;99.90
18884;DHT22;9574;47.282;9.640;2023-04-01T14:47:41;11.00;99.90
18884;DHT22;9574;47.282;9.640;2023-04-01T14:50:14;11.40;99.90
18884;DHT22;9574;47.282;9.640;2023-04-01T14:52:59;11.60;99.90
18884;DHT22;9574;47.282;9.640;2023-04-01T14:55:49;11.60;99.90
18884;DHT22;9574;47.282;9.640;2023-04-01T14:58:22;11.70;99.90
18884;DHT22;9574;47.282;9.640;2023-04-01T15:01:00;11.70;99.90
18884;DHT22;9574;47.282;9.640;2023-04-01T15:03:40;11.80;99.90
18884;DHT22;9574;47.282;9.640;2023-04-01T15:09:19;11.80;99.90
18884;DHT22;9574;47.282;9.640;2023-04-01T15:12:04;11.80;99.90
18884;DHT22;9574;47.282;9.640;2023-04-01T15:14:56;11.80;99.90
18884;DHT22;9574;47.282;9.640;2023-04-01T15:17:48;11.90;99.90
18884;DHT22;9574;47.282;9.640;2023-04-01T15:20:42;11.80;99.90
18884;DHT22;9574;47.282;9.640;2023-04-01T15:23:39;11.70;99.90
18884;DHT22;9574;47.282;9.640;2023-04-01T15:26:20;11.70;99.90
18884;DHT22;9574;47.282;9.640;2023-04-01T15:29:06;11.70;99.90
18884;DHT22;9574;47.282;9.640;2023-04-01T15:31:44;11.80;99.90
18884;DHT22;9574;47.282;9.640;2023-04-01T15:34:26;11.70;99.90
18884;DHT22;9574;47.282;9.640;2023-04-01T15:37:02;11.70;99.90
18884;DHT22;9574;47.282;9.640;2023-04-01T15:39:45;11.70;99.90
18884;DHT22;9574;47.282;9.640;2023-04-01T15:42:29;11.70;99.90
18884;DHT22;9574;47.282;9.640;2023-04-01T15:45:16;11.70;99.90
18884;DHT22;9574;47.282;9.640;2023-04-01T15:47:49;11.70;99.90
18884;DHT22;9574;47.282;9.640;2023-04-01T15:50:53;11.50;99.90
18884;DHT22;9574;47.282;9.640;2023-04-01T15:53:44;11.40;99.90
18884;DHT22;9574;47.282;9.640;2023-04-01T15:56:36;11.30;99.90
18884;DHT22;9574;47.282;9.640;2023-04-01T15:59:21;11.40;99.90
18884;DHT22;9574;47.282;9.640;2023-04-01T16:01:59;11.40;99.90
18884;DHT22;9574;47.282;9.640;2023-04-01T16:04:48;11.40;99.90
18884;DHT22;9574;47.282;9.640;2023-04-01T16:07:27;11.50;99.90
18884;DHT22;9574;47.282;9.640;2023-04-01T16:10:09;11.60;99.90
18884;DHT22;9574;47.282;9.640;2023-04-01T16:12:51;11.60;99.90
18884;DHT22;9574;47.282;9.640;2023-04-01T16:15:25;11.70;99.90
18884;DHT22;9574;47.282;9.640;2023-04-01T16:18:19;11.60;99.90
18884;DHT22;9574;47.282;9.640;2023-04-01T16:20:56;11.70;99.90
18884;DHT22;9574;47.282;9.640;2023-04-01T16:23:35;11.70;99.90
18884;DHT22;9574;47.282;9.640;2023-04-01T16:26:07;11.70;99.90
18884;DHT22;9574;47.282;9.640;2023-04-01T16:28:42;11.70;99.90
18884;DHT22;9574;47.282;9.640;2023-04-01T16:31:23;11.50;99.90
18884;DHT22;9574;47.282;9.640;2023-04-01T16:33:57;11.30;99.90
18884;DHT22;9574;47.282;9.640;2023-04-01T16:36:29;10.80;99.90
18884;DHT22;9574;47.282;9.640;2023-04-01T16:39:15;10.40;99.90
18884;DHT22;9574;47.282;9.640;2023-04-01T16:41:51;10.60;99.90
18884;DHT22;9574;47.282;9.640;2023-04-01T16:44:22;10.40;99.90
18884;DHT22;9574;47.282;9.640;2023-04-01T16:46:52;10.10;99.90
18884;DHT22;9574;47.282;9.640;2023-04-01T16:49:31;9.80;99.90
18884;DHT22;9574;47.282;9.640;2023-04-01T16:52:16;9.70;99.90
18884;DHT22;9574;47.282;9.640;2023-04-01T16:54:50;9.60;99.90
18884;DHT22;9574;47.282;9.640;2023-04-01T16:57:25;9.30;99.90
18884;DHT22;9574;47.282;9.640;2023-04-01T16:59:59;9.20;99.90
18884;DHT22;9574;47.282;9.640;2023-04-01T17:02:35;9.20;99.90
18884;DHT22;9574;47.282;9.640;2023-04-01T17:05:08;9.20;99.90
18884;DHT22;9574;47.282;9.640;2023-04-01T17:07:49;9.20;99.90
18884;DHT22;9574;47.282;9.640;2023-04-01T17:10:37;9.20;99.90
18884;DHT22;9574;47.282;9.640;2023-04-01T17:13:31;9.20;99.90
18884;DHT22;9574;47.282;9.640;2023-04-01T17:18:53;9.10;99.90
18884;DHT22;9574;47.282;9.640;2023-04-01T17:21:27;9.00;99.90
18884;DHT22;9574;47.282;9.640;2023-04-01T17:24:08;9.00;99.90
18884;DHT22;9574;47.282;9.640;2023-04-01T17:26:47;9.00;99.90
18884;DHT22;9574;47.282;9.640;2023-04-01T17:29:22;8.90;99.90
18884;DHT22;9574;47.282;9.640;2023-04-01T17:31:55;9.00;99.90
18884;DHT22;9574;47.282;9.640;2023-04-01T17:34:54;9.10;99.90
18884;DHT22;9574;47.282;9.640;2023-04-01T17:37:45;9.20;99.90
18884;DHT22;9574;47.282;9.640;2023-04-01T17:40:50;9.10;99.90
18884;DHT22;9574;47.282;9.640;2023-04-01T17:43:30;9.00;99.90
18884;DHT22;9574;47.282;9.640;2023-04-01T17:46:11;9.10;99.90
18884;DHT22;9574;47.282;9.640;2023-04-01T17:48:54;9.20;99.90
18884;DHT22;9574;47.282;9.640;2023-04-01T17:51:28;9.10;99.90
18884;DHT22;9574;47.282;9.640;2023-04-01T17:54:06;9.10;99.90
18884;DHT22;9574;47.282;9.640;2023-04-01T17:56:47;9.10;99.90
18884;DHT22;9574;47.282;9.640;2023-04-01T17:59:26;9.00;99.90
18884;DHT22;9574;47.282;9.640;2023-04-01T18:02:08;8.90;99.90
18884;DHT22;9574;47.282;9.640;2023-04-01T18:08:11;8.70;99.90
18884;DHT22;9574;47.282;9.640;2023-04-01T18:11:00;8.60;99.90
18884;DHT22;9574;47.282;9.640;2023-04-01T18:14:03;8.60;99.90
18884;DHT22;9574;47.282;9.640;2023-04-01T18:16:45;8.50;99.90
18884;DHT22;9574;47.282;9.640;2023-04-01T18:19:26;8.40;99.90
18884;DHT22;9574;47.282;9.640;2023-04-01T18:21:58;8.40;99.90
18884;DHT22;9574;47.282;9.640;2023-04-01T18:24:32;8.40;99.90
18884;DHT22;9574;47.282;9.640;2023-04-01T18:27:03;8.40;99.90
18884;DHT22;9574;47.282;9.640;2023-04-01T18:29:39;8.40;99.90
18884;DHT22;9574;47.282;9.640;2023-04-01T18:32:28;8.40;99.90
18884;DHT22;9574;47.282;9.640;2023-04-01T18:35:14;8.50;99.90
18884;DHT22;9574;47.282;9.640;2023-04-01T18:37:49;8.70;99.90
18884;DHT22;9574;47.282;9.640;2023-04-01T18:40:21;9.00;99.90
18884;DHT22;9574;47.282;9.640;2023-04-01T18:43:08;9.00;99.90
18884;DHT22;9574;47.282;9.640;2023-04-01T18:45:42;8.90;99.90
18884;DHT22;9574;47.282;9.640;2023-04-01T18:48:38;8.70;99.90
18884;DHT22;9574;47.282;9.640;2023-04-01T18:51:14;8.50;99.90
18884;DHT22;9574;47.282;9.640;2023-04-01T18:53:52;8.50;99.90
18884;DHT22;9574;47.282;9.640;2023-04-01T18:56:28;8.30;99.90
18884;DHT22;9574;47.282;9.640;2023-04-01T18:59:01;8.20;99.90
18884;DHT22;9574;47.282;9.640;2023-04-01T19:01:39;8.10;99.90